Aérodrome :
LOGIN :

S'inscrire | Disclaimer

   EN    FR    IT 

 










Légende :    VFR   VFR Marginal   IFR   IFR Intensif   IFR Très Intensif
Visi : 
Plafond : 
>= 8 km
>= 3000ft
5 à 8 km
1000 à 3000 ft
1500m à 5 km
500 à 1000 ft
800 à 1500m
200 à 500 ft
< 800m
< 200 ft
Symboles :   Orages  Brouillard  Fortes neiges  Fortes précipitations  Vent > 20 kt
SIGMETs :   Divers  Orages  Givrage  Turbulence  Onde Orograph.  Cendres Volcan.







- Altitude de l'aérodrome : 291 ft
- Code IATA : ORY
- Voir les cartes d'approche


LFPO - Paris-Orly

DERNIER METAR :
  • 222130Z 29004KT CAVOK 15/14 Q1016 NOSIG

METARs EXPIRÉS :
  • 222100Z VRB03KT CAVOK 15/14 Q1016 NOSIG
  • 222030Z 29005KT CAVOK 15/14 Q1015 NOSIG
  • 222000Z 28004KT 260V340 9999 FEW053TCU BKN090 BKN260 16/14 Q1015 NOSIG
  • 221930Z VRB03KT 9999 FEW053TCU SCT093 BKN260 16/14 Q1015 NOSIG
  • 221900Z 26004KT 9999 FEW053TCU SCT093 BKN260 17/15 Q1014 NOSIG

TAF TAF LFPO
Valide du 22 à 18h jusqu'au 24 à 00h UTC


221700Z 2218/2324 33005KT CAVOK
TEMPO 2218/2220 4000 SHRA SCT040CB SCT080
PROB30
TEMPO 2218/2220 33010G22KT 2500 -TSRAGR SCT035CB BKN050
TEMPO 2304/2308 BKN008
BECMG 2310/2312 02006KT SCT030
TEMPO 2312/2320 4000 SHRA SCT040CB SCT050
PROB40
TEMPO 2313/2318 02010G22KT 2500 -TSRA
BECMG 2320/2323 CAVOK
ATIS : +33 1 49 75 65 80
Pas de NOTAMs connus pour ce terrain.



MET'MAP, la Météo Aéronautique d'un coup d'oeil ! - Copyright ORBIFLY Décembre 2007 - Disclaimer

ORBIFLY MET'MAP TEAM :

Programmation & Développement : Alexandra Zaïnal
Conception & Développement : Baudouin d'Aumeries
Co-Programmation & Développement : Marc-Olivier Méhu
Soutien technique & logistique : Manuel Goepfert

Contact : metmap@orbifly.com




SOURCES & CREDITS :

   NOAA